Time;durP1;ratioP1;P1;durP2;ratioP2;P2;SDS_P1;SDS_P2;PMS_P1;PMS_P2;Temp;Humidity;BMP_temperature;BMP_pressure;BME280_temperature;BME280_humidity;BME280_pressure;Samples;Min_cycle;Max_cycle;Signal;HPM_P1;HPM_P2
2022/09/22 00:01:17;;;;;;;25.77;19.35;;;11.30;99.90;;;;;;5023497;28;20017;-68
2022/09/22 00:03:47;;;;;;;25.90;20.48;;;11.30;99.90;;;;;;5029935;28;21366;-67
2022/09/22 00:06:22;;;;;;;27.48;19.70;;;11.30;99.90;;;;;;5027765;28;20378;-69
2022/09/22 00:08:51;;;;;;;25.58;18.65;;;11.20;99.90;;;;;;5025363;28;20057;-67
2022/09/22 00:11:27;;;;;;;23.80;18.65;;;11.20;99.90;;;;;;5025330;28;20034;-67
2022/09/22 00:14:00;;;;;;;22.05;19.38;;;11.10;99.90;;;;;;5028199;28;20037;-67
2022/09/22 00:16:29;;;;;;;22.02;19.35;;;11.20;99.90;;;;;;5024629;28;20022;-67
2022/09/22 00:18:55;;;;;;;22.48;20.10;;;11.10;99.90;;;;;;5029663;28;20052;-68
2022/09/22 00:21:23;;;;;;;24.95;19.27;;;11.10;99.90;;;;;;5028528;28;20022;-67
2022/09/22 00:23:49;;;;;;;25.73;21.25;;;11.00;99.90;;;;;;5028617;28;20032;-67
2022/09/22 00:26:19;;;;;;;25.92;19.92;;;11.00;99.90;;;;;;5030334;28;20025;-68
2022/09/22 00:28:46;;;;;;;22.27;19.88;;;11.00;99.90;;;;;;5033189;28;20014;-67
2022/09/22 00:31:16;;;;;;;24.83;19.00;;;10.90;99.90;;;;;;5031599;28;20048;-67
2022/09/22 00:33:42;;;;;;;21.42;19.13;;;10.90;99.90;;;;;;5034543;28;20076;-70
2022/09/22 00:36:09;;;;;;;25.45;20.80;;;10.90;99.90;;;;;;5029461;28;20037;-68
2022/09/22 00:38:37;;;;;;;23.10;18.38;;;10.90;99.90;;;;;;5025005;28;20025;-67
2022/09/22 00:41:03;;;;;;;22.00;17.58;;;10.80;99.90;;;;;;5032949;28;20033;-67
2022/09/22 00:43:33;;;;;;;28.67;17.33;;;10.80;99.90;;;;;;5028511;28;20496;-67
2022/09/22 00:46:15;;;;;;;19.15;16.40;;;10.80;99.90;;;;;;5026207;28;20025;-67
2022/09/22 00:48:47;;;;;;;22.30;17.25;;;10.80;99.90;;;;;;5025935;28;20414;-67
2022/09/22 00:51:17;;;;;;;24.02;16.30;;;10.70;99.90;;;;;;5028598;28;20048;-67
2022/09/22 00:53:43;;;;;;;23.17;16.98;;;10.70;99.90;;;;;;5032648;28;20429;-67
2022/09/22 00:56:14;;;;;;;21.13;17.17;;;10.60;99.90;;;;;;5031275;28;20037;-67
2022/09/22 00:58:54;;;;;;;21.80;17.63;;;10.60;99.90;;;;;;5031126;28;20474;-67
2022/09/22 01:01:20;;;;;;;27.13;18.65;;;10.60;99.90;;;;;;5025745;28;20060;-67
2022/09/22 01:03:48;;;;;;;20.65;17.55;;;10.70;99.90;;;;;;5028602;28;20056;-68
2022/09/22 01:06:19;;;;;;;23.00;17.83;;;10.60;99.90;;;;;;5026536;28;20030;-67
2022/09/22 01:08:45;;;;;;;22.17;16.55;;;10.60;99.90;;;;;;5030098;28;20046;-67
2022/09/22 01:11:13;;;;;;;23.40;17.70;;;10.60;99.90;;;;;;5025447;28;20521;-67
2022/09/22 01:14:07;;;;;;;21.67;17.42;;;10.50;99.90;;;;;;5032277;28;20025;-67
2022/09/22 01:16:33;;;;;;;21.70;17.95;;;10.50;99.90;;;;;;5026976;28;20044;-67
2022/09/22 01:19:32;;;;;;;23.45;18.65;;;10.50;99.90;;;;;;5024366;28;20026;-67
2022/09/22 01:22:24;;;;;;;22.30;18.80;;;10.50;99.90;;;;;;5029100;28;20564;-67
2022/09/22 01:25:16;;;;;;;23.67;17.67;;;10.50;99.90;;;;;;5023912;28;20038;-67
2022/09/22 01:27:57;;;;;;;22.48;17.42;;;10.40;99.90;;;;;;5023965;28;20028;-68
2022/09/22 01:30:42;;;;;;;17.60;15.77;;;10.40;99.90;;;;;;5026841;28;20037;-67
2022/09/22 01:33:31;;;;;;;22.13;16.50;;;10.30;99.90;;;;;;5020867;28;20072;-66
2022/09/22 01:36:15;;;;;;;20.33;15.82;;;10.30;99.90;;;;;;5022125;28;20033;-67
2022/09/22 01:38:45;;;;;;;19.20;16.85;;;10.30;99.90;;;;;;5020714;28;20025;-66
2022/09/22 01:41:33;;;;;;;21.83;16.20;;;10.30;99.90;;;;;;5026363;28;20029;-67
2022/09/22 01:44:11;;;;;;;22.40;18.25;;;10.30;99.90;;;;;;5022912;28;20029;-67
2022/09/22 01:46:42;;;;;;;21.77;18.67;;;10.20;99.90;;;;;;5028796;28;20030;-68
2022/09/22 01:49:12;;;;;;;22.23;18.90;;;10.20;99.90;;;;;;5023983;28;20014;-67
2022/09/22 01:51:43;;;;;;;22.50;17.90;;;10.20;99.90;;;;;;5027827;28;20052;-67
2022/09/22 01:54:17;;;;;;;21.13;17.95;;;10.10;99.90;;;;;;5027077;28;20022;-67
2022/09/22 01:56:47;;;;;;;20.90;17.38;;;10.10;99.90;;;;;;5023808;28;20021;-66
2022/09/22 01:59:16;;;;;;;25.80;18.55;;;10.10;99.90;;;;;;5031579;28;20084;-67
2022/09/22 02:01:51;;;;;;;22.17;17.60;;;10.10;99.90;;;;;;5029205;28;20057;-67
2022/09/22 02:04:29;;;;;;;27.30;17.33;;;10.20;99.90;;;;;;5026872;28;20036;-66
2022/09/22 02:07:01;;;;;;;20.88;16.85;;;10.10;99.90;;;;;;5026027;28;20477;-67
2022/09/22 02:09:29;;;;;;;21.92;17.30;;;10.10;99.90;;;;;;5030825;28;20029;-68
2022/09/22 02:11:56;;;;;;;19.83;16.17;;;10.00;99.90;;;;;;5016569;28;20690;-66
2022/09/22 02:14:24;;;;;;;21.65;17.25;;;10.00;99.90;;;;;;5024621;28;20032;-67
2022/09/22 02:16:50;;;;;;;17.65;15.75;;;10.00;99.90;;;;;;5028030;28;20033;-68
2022/09/22 02:19:26;;;;;;;22.50;16.92;;;9.90;99.90;;;;;;5017753;28;20026;-66
2022/09/22 02:21:53;;;;;;;23.58;16.77;;;9.90;99.90;;;;;;5028313;28;20367;-67
2022/09/22 02:24:24;;;;;;;24.45;16.10;;;9.90;99.90;;;;;;5022429;28;20026;-66
2022/09/22 02:26:51;;;;;;;20.83;15.60;;;9.90;99.90;;;;;;5027517;28;20061;-67
2022/09/22 02:29:16;;;;;;;22.10;17.33;;;9.80;99.90;;;;;;5020466;28;20028;-66
2022/09/22 02:31:42;;;;;;;23.77;17.02;;;9.80;99.90;;;;;;5026729;28;20033;-66
2022/09/22 02:34:08;;;;;;;19.13;16.00;;;9.70;99.90;;;;;;5024063;28;20504;-67
2022/09/22 02:36:48;;;;;;;20.17;15.65;;;9.80;99.90;;;;;;5023218;28;20032;-67
2022/09/22 02:39:33;;;;;;;18.10;15.55;;;9.80;99.90;;;;;;5024742;28;20013;-67
2022/09/22 02:42:08;;;;;;;20.95;15.00;;;9.70;99.90;;;;;;5026697;28;20159;-67
2022/09/22 02:44:44;;;;;;;18.88;16.80;;;9.70;99.90;;;;;;5029110;28;20061;-66
2022/09/22 02:47:16;;;;;;;19.92;17.15;;;9.70;99.90;;;;;;5028304;28;20029;-66
2022/09/22 02:49:42;;;;;;;21.55;16.52;;;9.70;99.90;;;;;;5031499;28;20466;-66
2022/09/22 02:52:11;;;;;;;21.73;18.23;;;9.60;99.90;;;;;;5029263;28;20489;-66
2022/09/22 02:54:38;;;;;;;19.35;14.93;;;9.60;99.90;;;;;;5026022;28;20151;-68
2022/09/22 02:57:04;;;;;;;17.30;14.60;;;9.60;99.90;;;;;;5020147;28;20021;-66
2022/09/22 02:59:30;;;;;;;20.27;16.40;;;9.50;99.90;;;;;;5028026;28;20507;-67
2022/09/22 03:01:55;;;;;;;25.40;15.88;;;9.50;99.90;;;;;;5024666;28;20025;-67
2022/09/22 03:04:21;;;;;;;18.80;16.25;;;9.50;99.90;;;;;;5026298;28;20112;-68
2022/09/22 03:06:47;;;;;;;19.10;15.10;;;9.50;99.90;;;;;;5028443;28;20064;-67
2022/09/22 03:09:15;;;;;;;19.58;14.75;;;9.50;99.90;;;;;;5027387;28;20034;-67
2022/09/22 03:11:41;;;;;;;20.58;14.43;;;9.40;99.90;;;;;;5030695;28;20406;-67
2022/09/22 03:14:06;;;;;;;16.75;14.05;;;9.40;99.90;;;;;;5028213;28;20034;-67
2022/09/22 03:16:32;;;;;;;18.27;14.20;;;9.40;99.90;;;;;;5028579;28;20160;-67
2022/09/22 03:18:58;;;;;;;17.85;14.50;;;9.40;99.90;;;;;;5022093;28;20022;-67
2022/09/22 03:21:24;;;;;;;17.15;13.40;;;9.40;99.90;;;;;;5026695;28;20029;-66
2022/09/22 03:23:49;;;;;;;18.58;13.85;;;9.30;99.90;;;;;;5022382;28;20056;-67
2022/09/22 03:26:15;;;;;;;20.08;13.60;;;9.30;99.90;;;;;;5025211;28;20025;-67
2022/09/22 03:28:42;;;;;;;15.18;13.63;;;9.30;99.90;;;;;;5027188;28;20422;-67
2022/09/22 03:31:10;;;;;;;18.25;14.57;;;9.30;99.90;;;;;;5032256;28;20030;-66
2022/09/22 03:33:36;;;;;;;16.52;13.65;;;9.30;99.90;;;;;;5031184;28;20393;-66
2022/09/22 03:36:03;;;;;;;16.17;12.98;;;9.30;99.90;;;;;;5029701;28;20118;-66
2022/09/22 03:38:28;;;;;;;21.15;14.77;;;9.20;99.90;;;;;;5018305;28;20022;-67
2022/09/22 03:40:57;;;;;;;17.33;14.70;;;9.30;99.90;;;;;;5027394;28;20036;-67
2022/09/22 03:43:23;;;;;;;17.95;14.07;;;9.20;99.90;;;;;;5021079;28;20495;-68
2022/09/22 03:45:56;;;;;;;18.00;14.07;;;9.20;99.90;;;;;;5031099;28;20029;-67
2022/09/22 03:48:22;;;;;;;18.35;14.07;;;9.20;99.90;;;;;;5026947;28;20033;-68
2022/09/22 03:50:48;;;;;;;17.70;13.77;;;9.20;99.90;;;;;;5022548;28;20036;-67
2022/09/22 03:53:14;;;;;;;20.17;14.50;;;9.20;99.90;;;;;;5019255;28;20108;-67
2022/09/22 03:55:40;;;;;;;17.45;14.70;;;9.10;99.90;;;;;;5028084;28;20037;-67
2022/09/22 03:58:05;;;;;;;16.63;13.88;;;9.10;99.90;;;;;;5029559;28;20677;-66
2022/09/22 04:00:31;;;;;;;17.75;14.05;;;9.10;99.90;;;;;;5021629;28;20041;-68
2022/09/22 04:02:57;;;;;;;22.40;14.63;;;9.00;99.90;;;;;;5030488;28;20458;-67
2022/09/22 04:05:24;;;;;;;18.48;14.48;;;9.00;99.90;;;;;;5030759;28;20056;-67
2022/09/22 04:07:49;;;;;;;20.20;15.73;;;9.00;99.90;;;;;;5024705;28;20516;-66
2022/09/22 04:10:16;;;;;;;17.23;14.43;;;9.00;99.90;;;;;;5030336;28;20038;-68
2022/09/22 04:12:42;;;;;;;16.77;14.18;;;9.00;99.90;;;;;;5022922;28;20025;-67
2022/09/22 04:15:08;;;;;;;20.30;14.00;;;9.00;99.90;;;;;;5030374;28;20111;-66
2022/09/22 04:17:35;;;;;;;18.60;14.82;;;9.00;99.90;;;;;;5031040;28;20437;-67
2022/09/22 04:20:02;;;;;;;17.80;14.20;;;9.00;99.90;;;;;;5034168;28;20108;-66
2022/09/22 04:22:28;;;;;;;20.65;14.98;;;9.00;99.90;;;;;;5035757;28;20066;-66
2022/09/22 04:24:54;;;;;;;18.48;15.55;;;8.90;99.90;;;;;;5026812;28;20022;-67
2022/09/22 04:27:19;;;;;;;18.48;13.68;;;8.90;99.90;;;;;;5034041;28;20029;-67
2022/09/22 04:29:45;;;;;;;21.23;14.95;;;8.90;99.90;;;;;;5033056;28;20040;-68
2022/09/22 04:32:11;;;;;;;19.67;16.42;;;8.90;99.90;;;;;;5033325;28;20021;-66
2022/09/22 04:34:36;;;;;;;24.67;16.80;;;8.80;99.90;;;;;;5033174;28;20033;-67
2022/09/22 04:37:02;;;;;;;21.85;17.33;;;8.80;99.90;;;;;;5030320;28;20458;-67
2022/09/22 04:39:27;;;;;;;23.55;17.48;;;8.80;99.90;;;;;;5034968;28;20047;-67
2022/09/22 04:41:54;;;;;;;19.13;14.07;;;8.70;99.90;;;;;;5023854;28;20351;-67
2022/09/22 04:44:20;;;;;;;22.25;16.38;;;8.70;99.90;;;;;;5032033;28;20109;-67
2022/09/22 04:46:45;;;;;;;22.75;15.88;;;8.60;99.90;;;;;;5029384;28;20134;-67
2022/09/22 04:49:15;;;;;;;23.20;17.58;;;8.70;99.90;;;;;;5025509;28;20109;-67
2022/09/22 04:51:41;;;;;;;25.70;16.73;;;8.60;99.90;;;;;;5035282;28;20029;-66
2022/09/22 04:54:06;;;;;;;25.33;17.63;;;8.60;99.90;;;;;;5031461;28;20642;-66
2022/09/22 04:56:32;;;;;;;25.17;18.15;;;8.60;99.90;;;;;;5023270;28;20033;-66
2022/09/22 04:58:58;;;;;;;25.45;17.38;;;8.60;99.90;;;;;;5031281;28;20026;-67
2022/09/22 05:01:26;;;;;;;21.80;16.27;;;8.60;99.90;;;;;;5030463;28;20049;-66
2022/09/22 05:03:52;;;;;;;18.02;14.75;;;8.60;99.90;;;;;;5035021;28;20021;-66
2022/09/22 05:06:18;;;;;;;24.45;16.15;;;8.50;99.90;;;;;;5034497;28;20467;-67
2022/09/22 05:08:44;;;;;;;19.77;14.70;;;8.50;99.90;;;;;;5030726;28;20017;-67
2022/09/22 05:11:09;;;;;;;20.42;14.30;;;8.60;99.90;;;;;;5024169;28;20558;-67
2022/09/22 05:13:39;;;;;;;20.20;16.80;;;8.50;99.90;;;;;;5032419;28;20034;-66
2022/09/22 05:16:07;;;;;;;24.55;18.17;;;8.50;99.90;;;;;;5032924;28;20120;-66
2022/09/22 05:18:33;;;;;;;26.40;19.65;;;8.50;99.90;;;;;;5031101;28;20025;-66
2022/09/22 05:20:59;;;;;;;22.58;18.95;;;8.50;99.90;;;;;;5030123;28;20053;-67
2022/09/22 05:23:25;;;;;;;23.90;18.58;;;8.60;99.90;;;;;;5033989;28;20022;-66
2022/09/22 05:25:51;;;;;;;24.85;18.05;;;8.50;99.90;;;;;;5034177;28;20127;-67
2022/09/22 05:28:16;;;;;;;19.70;16.05;;;8.50;99.90;;;;;;5034064;28;20040;-66
2022/09/22 05:30:42;;;;;;;20.70;15.52;;;8.50;99.90;;;;;;5033514;28;20039;-66
2022/09/22 05:33:08;;;;;;;21.80;16.70;;;8.40;99.90;;;;;;5034122;28;20033;-67
2022/09/22 05:35:33;;;;;;;19.90;15.68;;;8.40;99.90;;;;;;5034337;28;20367;-66
2022/09/22 05:37:59;;;;;;;23.00;15.45;;;8.40;99.90;;;;;;5034148;28;20080;-67
2022/09/22 05:40:25;;;;;;;20.05;15.35;;;8.40;99.90;;;;;;5031331;28;20029;-66
2022/09/22 05:42:52;;;;;;;21.20;14.70;;;8.40;99.90;;;;;;5033788;28;20370;-69
2022/09/22 05:45:19;;;;;;;20.80;15.45;;;8.40;99.90;;;;;;5033660;28;20026;-66
2022/09/22 05:47:45;;;;;;;24.67;15.65;;;8.40;99.90;;;;;;5033384;28;20105;-66
2022/09/22 05:50:13;;;;;;;24.05;16.25;;;8.40;99.90;;;;;;5033381;28;20100;-66
2022/09/22 05:52:39;;;;;;;19.90;16.15;;;8.40;99.90;;;;;;5033244;28;20079;-66
2022/09/22 05:55:05;;;;;;;20.15;16.25;;;8.30;99.90;;;;;;5016630;28;20034;-66
2022/09/22 05:57:31;;;;;;;22.08;15.85;;;8.30;99.90;;;;;;5014940;28;20105;-69
2022/09/22 05:59:57;;;;;;;23.33;16.70;;;8.40;99.90;;;;;;5032388;28;20467;-67
2022/09/22 06:02:23;;;;;;;25.50;17.23;;;8.40;99.90;;;;;;5033115;28;20526;-67
2022/09/22 06:04:50;;;;;;;29.08;17.27;;;8.40;99.90;;;;;;5033659;28;20108;-66
2022/09/22 06:07:19;;;;;;;20.45;15.82;;;8.30;99.90;;;;;;5033650;28;20026;-67
2022/09/22 06:09:46;;;;;;;21.15;14.68;;;8.30;99.90;;;;;;5033064;28;20029;-66
2022/09/22 06:12:11;;;;;;;20.00;15.35;;;8.30;99.90;;;;;;5032855;28;20045;-66
2022/09/22 06:14:37;;;;;;;20.02;15.43;;;8.30;99.90;;;;;;5033100;28;20037;-66
2022/09/22 06:17:03;;;;;;;22.98;16.00;;;8.40;99.90;;;;;;5033550;28;20052;-67
2022/09/22 06:19:29;;;;;;;20.40;14.88;;;8.40;99.90;;;;;;5032673;28;20036;-67
2022/09/22 06:21:56;;;;;;;22.10;14.68;;;8.40;99.90;;;;;;5033374;28;20100;-67
2022/09/22 06:24:22;;;;;;;19.95;15.25;;;8.40;99.90;;;;;;5029546;28;20119;-66
2022/09/22 06:26:48;;;;;;;19.02;15.50;;;8.30;99.90;;;;;;5032446;28;20036;-66
2022/09/22 06:29:14;;;;;;;18.10;14.38;;;8.40;99.90;;;;;;5032701;28;20029;-67
2022/09/22 06:31:40;;;;;;;19.40;14.48;;;8.40;99.90;;;;;;5031699;28;20041;-67
2022/09/22 06:34:07;;;;;;;17.77;14.00;;;8.40;99.90;;;;;;5033077;28;20116;-66
2022/09/22 06:36:33;;;;;;;17.35;14.50;;;8.40;99.90;;;;;;5032814;28;20017;-67
2022/09/22 06:39:00;;;;;;;20.35;15.15;;;8.50;99.90;;;;;;5032907;28;20033;-67
2022/09/22 06:41:27;;;;;;;22.17;15.18;;;8.50;99.90;;;;;;5032125;28;20022;-68
2022/09/22 06:43:56;;;;;;;18.58;14.18;;;8.50;99.90;;;;;;5033114;28;20140;-67
2022/09/22 06:46:26;;;;;;;23.48;16.58;;;8.50;99.90;;;;;;5030646;28;20025;-67
2022/09/22 06:48:56;;;;;;;18.15;15.25;;;8.50;99.90;;;;;;5032434;28;20029;-66
2022/09/22 06:51:32;;;;;;;22.95;14.75;;;8.50;99.90;;;;;;5031397;28;20029;-66
2022/09/22 06:54:00;;;;;;;24.77;16.73;;;8.50;99.90;;;;;;5032487;28;20025;-65
2022/09/22 06:56:26;;;;;;;21.48;15.57;;;8.50;99.90;;;;;;5028637;28;20025;-65
2022/09/22 06:58:54;;;;;;;19.55;16.48;;;8.60;99.90;;;;;;5031165;28;20025;-64
2022/09/22 07:01:22;;;;;;;22.80;15.25;;;8.60;99.90;;;;;;5025002;28;20751;-66
2022/09/22 07:03:48;;;;;;;23.45;16.17;;;8.60;99.90;;;;;;5017846;28;20091;-67
2022/09/22 07:06:17;;;;;;;22.33;16.25;;;8.60;99.90;;;;;;5032444;28;20033;-66
2022/09/22 07:08:44;;;;;;;25.02;17.00;;;8.60;99.90;;;;;;5031567;28;20041;-67
2022/09/22 07:11:10;;;;;;;20.45;16.05;;;8.60;99.90;;;;;;5032842;28;20036;-66
2022/09/22 07:13:38;;;;;;;27.63;17.63;;;8.60;99.90;;;;;;5031760;28;20081;-66
2022/09/22 07:16:06;;;;;;;28.45;18.25;;;8.70;99.90;;;;;;5031864;28;20080;-66
2022/09/22 07:18:32;;;;;;;23.98;16.67;;;8.70;99.90;;;;;;5032344;28;20025;-66
2022/09/22 07:21:11;;;;;;;28.17;18.02;;;8.80;99.90;;;;;;5031795;28;20479;-67
2022/09/22 07:23:38;;;;;;;26.73;18.55;;;8.90;99.90;;;;;;5031069;28;20029;-67
2022/09/22 07:26:05;;;;;;;28.30;18.40;;;8.90;99.90;;;;;;5031580;28;20360;-67
2022/09/22 07:28:33;;;;;;;34.08;21.20;;;8.90;99.90;;;;;;5028720;28;20017;-67
2022/09/22 07:31:07;;;;;;;33.88;22.55;;;9.00;99.90;;;;;;5031457;28;20033;-67
2022/09/22 07:33:34;;;;;;;38.28;21.25;;;9.00;99.90;;;;;;5015124;28;20398;-67
2022/09/22 07:36:07;;;;;;;35.28;21.90;;;9.10;99.90;;;;;;5023682;28;20026;-67
2022/09/22 07:38:37;;;;;;;29.48;21.30;;;9.10;99.90;;;;;;5036648;28;20116;-67
2022/09/22 07:41:14;;;;;;;32.63;20.08;;;9.20;99.90;;;;;;5037595;28;20056;-67
2022/09/22 07:43:41;;;;;;;39.08;26.35;;;9.20;99.90;;;;;;5038092;28;20033;-67
2022/09/22 07:46:07;;;;;;;38.85;24.85;;;9.40;99.90;;;;;;5036634;28;20033;-67
2022/09/22 07:48:35;;;;;;;41.38;27.17;;;9.40;99.90;;;;;;5038496;28;20477;-68
2022/09/22 07:51:07;;;;;;;40.92;26.80;;;9.60;99.90;;;;;;5037799;28;20540;-67
2022/09/22 07:53:34;;;;;;;49.50;27.87;;;9.60;99.90;;;;;;5038649;28;20025;-67
2022/09/22 07:56:05;;;;;;;35.50;23.75;;;9.70;99.90;;;;;;5038763;28;20683;-67
2022/09/22 07:58:34;;;;;;;44.92;29.73;;;9.80;99.90;;;;;;5038164;28;20025;-67
2022/09/22 08:01:09;;;;;;;36.95;26.17;;;9.90;99.90;;;;;;5038214;28;20461;-67
2022/09/22 08:03:36;;;;;;;41.40;29.60;;;10.00;99.90;;;;;;5037503;28;20389;-67
2022/09/22 08:06:09;;;;;;;43.53;29.27;;;10.20;99.90;;;;;;5038564;28;20021;-67
2022/09/22 08:08:44;;;;;;;38.80;26.40;;;10.30;99.90;;;;;;5037781;28;20037;-68
2022/09/22 08:11:13;;;;;;;36.95;27.13;;;10.50;99.90;;;;;;5036853;28;20041;-67
2022/09/22 08:13:41;;;;;;;38.63;26.60;;;10.70;99.90;;;;;;5037798;28;20036;-67
2022/09/22 08:16:09;;;;;;;35.28;25.90;;;10.80;99.90;;;;;;5038294;28;20037;-67
2022/09/22 08:18:35;;;;;;;31.70;25.38;;;11.00;99.90;;;;;;5037824;28;20017;-66
2022/09/22 08:21:03;;;;;;;40.13;23.27;;;11.20;99.90;;;;;;5038411;28;20175;-68
2022/09/22 08:23:30;;;;;;;40.78;26.42;;;11.40;99.90;;;;;;5038236;28;20421;-67
2022/09/22 08:26:05;;;;;;;29.20;21.23;;;11.50;99.90;;;;;;5038489;28;20111;-67
2022/09/22 08:28:31;;;;;;;36.17;25.50;;;11.60;99.90;;;;;;5038348;28;20022;-66
2022/09/22 08:30:57;;;;;;;27.95;20.75;;;11.70;99.90;;;;;;5038096;28;20474;-66
2022/09/22 08:33:24;;;;;;;37.88;28.20;;;11.80;99.90;;;;;;5038726;28;20030;-67
2022/09/22 08:35:58;;;;;;;22.15;16.98;;;11.80;99.90;;;;;;5037142;28;20055;-68
2022/09/22 08:38:27;;;;;;;21.83;14.88;;;12.00;99.90;;;;;;5036991;28;20381;-68
2022/09/22 08:41:23;;;;;;;19.17;15.80;;;12.20;99.90;;;;;;5037843;28;20021;-67
2022/09/22 08:43:57;;;;;;;20.23;14.73;;;12.40;99.90;;;;;;5036181;28;20087;-67
2022/09/22 08:46:31;;;;;;;13.52;12.00;;;12.50;99.90;;;;;;5037747;28;20451;-68
2022/09/22 08:51:59;;;;;;;18.73;11.63;;;12.80;99.90;;;;;;5032983;28;20127;-67
2022/09/22 08:54:28;;;;;;;15.82;9.77;;;13.00;99.90;;;;;;5033102;28;20018;-67
2022/09/22 08:57:14;;;;;;;19.90;13.32;;;13.00;99.90;;;;;;5034314;28;20017;-68
2022/09/22 09:00:02;;;;;;;17.92;12.80;;;13.20;99.90;;;;;;5033185;28;20104;-67
2022/09/22 09:02:47;;;;;;;11.38;9.45;;;13.30;99.90;;;;;;5033743;28;20021;-67
2022/09/22 09:05:15;;;;;;;17.63;9.93;;;13.40;99.90;;;;;;5032915;28;20041;-67
2022/09/22 09:07:57;;;;;;;17.05;11.10;;;13.60;99.90;;;;;;5034521;28;20026;-67
2022/09/22 09:10:48;;;;;;;10.10;8.85;;;13.60;99.90;;;;;;5033884;28;20044;-68
2022/09/22 09:13:23;;;;;;;8.73;7.68;;;13.80;99.90;;;;;;5032767;28;20022;-67
2022/09/22 09:15:52;;;;;;;13.90;8.98;;;14.00;99.90;;;;;;5030980;28;20064;-67
2022/09/22 09:18:24;;;;;;;8.65;7.28;;;14.10;99.90;;;;;;5033155;28;20075;-68
2022/09/22 09:20:51;;;;;;;10.00;6.57;;;14.30;99.90;;;;;;5033440;28;20022;-68
2022/09/22 09:23:18;;;;;;;7.93;5.93;;;14.40;99.90;;;;;;5032293;28;20390;-67
2022/09/22 09:25:47;;;;;;;8.23;5.68;;;14.60;99.90;;;;;;5033925;28;20180;-68
2022/09/22 09:28:41;;;;;;;11.05;4.20;;;14.80;99.90;;;;;;5034067;28;20028;-68
2022/09/22 09:31:27;;;;;;;10.80;4.60;;;15.00;99.90;;;;;;5033846;28;20390;-67
2022/09/22 09:34:04;;;;;;;6.22;3.20;;;15.20;99.90;;;;;;5033614;28;20540;-73
2022/09/22 09:36:40;;;;;;;4.30;3.33;;;15.40;99.90;;;;;;5034146;28;20025;-71
2022/09/22 09:39:27;;;;;;;4.05;2.85;;;15.50;99.90;;;;;;5034218;28;20478;-67
2022/09/22 09:41:54;;;;;;;4.97;3.08;;;15.70;99.90;;;;;;5030168;28;20113;-68
2022/09/22 09:44:37;;;;;;;3.55;2.40;;;15.80;99.90;;;;;;5005665;28;20129;-68
2022/09/22 09:47:35;;;;;;;3.25;1.90;;;16.00;99.90;;;;;;5029618;28;20548;-69
2022/09/22 09:50:02;;;;;;;6.03;1.70;;;16.20;99.90;;;;;;5019919;28;20033;-68
2022/09/22 09:52:28;;;;;;;2.08;1.25;;;16.30;99.90;;;;;;5039407;28;20504;-68
2022/09/22 09:54:54;;;;;;;1.67;1.20;;;16.50;99.90;;;;;;5038624;28;20080;-68
2022/09/22 09:57:21;;;;;;;1.48;1.33;;;16.60;99.90;;;;;;5035232;28;20022;-69
2022/09/22 10:03:14;;;;;;;4.10;1.50;;;16.90;99.90;;;;;;5040451;28;20095;-68
2022/09/22 10:05:42;;;;;;;1.92;1.67;;;17.10;99.90;;;;;;5036029;28;20049;-69
2022/09/22 10:08:18;;;;;;;2.50;1.80;;;17.30;99.90;;;;;;5047166;28;20036;-68
2022/09/22 10:10:45;;;;;;;2.10;1.90;;;17.30;99.90;;;;;;5043124;28;20580;-68
2022/09/22 10:13:10;;;;;;;1.30;1.20;;;17.40;99.90;;;;;;5027471;28;20033;-69
2022/09/22 10:15:41;;;;;;;2.30;1.40;;;17.60;99.90;;;;;;5035726;28;20045;-69
2022/09/22 10:18:24;;;;;;;3.75;1.38;;;17.80;99.90;;;;;;5046905;28;20021;-68
2022/09/22 10:21:23;;;;;;;2.00;1.50;;;17.90;99.90;;;;;;5043629;28;20496;-69
2022/09/22 10:23:50;;;;;;;4.65;1.48;;;18.10;99.90;;;;;;5032662;28;20497;-68
2022/09/22 10:26:20;;;;;;;2.25;1.33;;;18.20;99.90;;;;;;5045402;28;20032;-68
2022/09/22 10:29:04;;;;;;;4.53;1.40;;;18.20;99.90;;;;;;5041392;28;20082;-68
2022/09/22 10:31:31;;;;;;;2.38;1.70;;;18.30;99.90;;;;;;5035818;28;20406;-68
2022/09/22 10:33:58;;;;;;;4.55;1.65;;;18.30;99.90;;;;;;5047562;28;20367;-68
2022/09/22 10:36:27;;;;;;;3.03;1.60;;;18.50;99.90;;;;;;5040339;28;20393;-68
2022/09/22 10:38:54;;;;;;;3.38;1.58;;;18.70;99.90;;;;;;5040558;28;20425;-69
2022/09/22 10:41:28;;;;;;;4.57;1.63;;;18.80;99.90;;;;;;5047713;28;20049;-69
2022/09/22 10:44:19;;;;;;;3.30;1.45;;;19.00;99.90;;;;;;5031956;28;20041;-70
2022/09/22 10:46:59;;;;;;;4.95;2.22;;;19.00;99.90;;;;;;5032051;28;20688;-69
2022/09/22 10:49:50;;;;;;;6.05;1.90;;;19.30;99.90;;;;;;5048152;28;20103;-69
2022/09/22 10:53:05;;;;;;;2.22;1.23;;;19.30;99.90;;;;;;5025342;28;20064;-69
2022/09/22 10:55:51;;;;;;;3.65;1.60;;;19.30;99.90;;;;;;5031150;28;20041;-69
2022/09/22 10:58:26;;;;;;;2.65;1.60;;;19.30;99.90;;;;;;5044500;28;20026;-70
2022/09/22 11:01:09;;;;;;;3.92;1.80;;;19.40;99.90;;;;;;5042253;28;20564;-71
2022/09/22 11:04:00;;;;;;;2.40;1.48;;;19.40;99.90;;;;;;5033116;28;20021;-70
2022/09/22 11:12:56;;;;;;;2.75;1.75;;;19.60;99.90;;;;;;5041733;28;20045;-71
2022/09/22 11:15:44;;;;;;;3.75;2.00;;;19.50;99.90;;;;;;5044574;28;20458;-70
2022/09/22 11:18:44;;;;;;;4.07;2.08;;;19.50;99.90;;;;;;5024207;28;20021;-71
2022/09/22 11:21:52;;;;;;;2.47;1.17;;;19.50;99.00;;;;;;5034395;28;20118;-71
2022/09/22 11:24:37;;;;;;;3.17;1.40;;;19.70;99.90;;;;;;5029819;28;20136;-71
2022/09/22 11:27:03;;;;;;;4.10;1.60;;;20.00;99.90;;;;;;5039354;28;20382;-71
2022/09/22 11:29:43;;;;;;;1.67;1.48;;;20.10;99.20;;;;;;5035071;28;20478;-70
2022/09/22 11:32:53;;;;;;;1.98;1.58;;;20.10;99.40;;;;;;5043971;28;20421;-71
2022/09/22 11:35:34;;;;;;;1.92;1.55;;;20.00;98.10;;;;;;5032434;28;20161;-71
2022/09/22 11:38:28;;;;;;;5.63;1.37;;;19.80;99.20;;;;;;5030112;28;20382;-70
2022/09/22 11:41:19;;;;;;;4.57;1.35;;;19.70;99.70;;;;;;5031193;28;20496;-71
2022/09/22 11:43:54;;;;;;;4.03;1.60;;;19.70;99.90;;;;;;5022196;28;20116;-71
2022/09/22 11:46:45;;;;;;;1.30;1.20;;;19.70;97.80;;;;;;5025710;28;20040;-71
2022/09/22 11:49:28;;;;;;;2.70;1.27;;;19.70;99.90;;;;;;5022717;28;20021;-70
2022/09/22 11:52:21;;;;;;;4.05;1.52;;;19.80;99.40;;;;;;5029642;28;20044;-71
2022/09/22 11:55:05;;;;;;;4.70;1.60;;;19.50;99.90;;;;;;5026570;28;20622;-71
2022/09/22 11:57:39;;;;;;;3.83;1.00;;;19.60;99.90;;;;;;5028534;28;20022;-71
2022/09/22 12:00:16;;;;;;;5.47;1.45;;;19.80;99.90;;;;;;5031055;28;20021;-70
2022/09/22 12:02:58;;;;;;;1.77;1.20;;;19.90;98.80;;;;;;5029536;28;20013;-71
2022/09/22 12:05:30;;;;;;;2.90;1.52;;;20.00;98.60;;;;;;5021908;28;20090;-71
2022/09/22 12:08:06;;;;;;;4.38;1.60;;;20.10;97.60;;;;;;5027565;28;20033;-71
2022/09/22 12:10:36;;;;;;;5.07;1.23;;;20.40;99.10;;;;;;5027021;28;20034;-70
2022/09/22 12:13:08;;;;;;;2.90;1.13;;;20.40;98.30;;;;;;5025043;28;20037;-70
2022/09/22 12:15:48;;;;;;;1.98;1.10;;;20.40;99.10;;;;;;5023277;28;20104;-71
2022/09/22 12:18:28;;;;;;;1.17;1.05;;;20.60;98.60;;;;;;5030052;28;20086;-71
2022/09/22 12:21:00;;;;;;;1.70;1.10;;;20.60;98.70;;;;;;5023213;28;20042;-70
2022/09/22 12:23:42;;;;;;;2.55;1.00;;;20.50;99.80;;;;;;5027963;28;20128;-71
2022/09/22 12:26:13;;;;;;;1.65;0.98;;;20.30;98.40;;;;;;5022201;28;20490;-71
2022/09/22 12:28:42;;;;;;;11.27;1.42;;;20.30;99.90;;;;;;5031695;28;20087;-71
2022/09/22 12:31:14;;;;;;;4.30;1.40;;;20.40;99.90;;;;;;5026883;28;20033;-71
2022/09/22 12:33:53;;;;;;;5.65;1.40;;;20.20;97.10;;;;;;5025970;28;20033;-71
2022/09/22 12:36:37;;;;;;;2.85;1.25;;;20.20;98.20;;;;;;5026996;28;20807;-71
2022/09/22 12:39:20;;;;;;;2.72;0.98;;;20.40;98.80;;;;;;5026215;28;20037;-71
2022/09/22 12:42:05;;;;;;;4.97;1.60;;;20.40;97.50;;;;;;5029042;28;20029;-71
2022/09/22 12:44:52;;;;;;;1.90;1.50;;;20.10;96.90;;;;;;5033846;28;20038;-71
2022/09/22 12:47:29;;;;;;;1.33;1.08;;;20.00;97.10;;;;;;5034089;28;20056;-70
2022/09/22 12:50:00;;;;;;;2.47;1.60;;;20.00;97.70;;;;;;5031485;28;20021;-71
2022/09/22 12:52:40;;;;;;;5.85;1.52;;;19.80;97.60;;;;;;5035862;28;20033;-71
2022/09/22 12:55:29;;;;;;;5.68;1.15;;;19.90;97.30;;;;;;5036890;28;20025;-71
2022/09/22 12:57:56;;;;;;;2.15;1.08;;;19.90;98.00;;;;;;5032032;28;20108;-71
2022/09/22 13:00:36;;;;;;;2.90;1.00;;;20.00;98.50;;;;;;5035348;28;20562;-71
2022/09/22 13:03:24;;;;;;;2.08;1.27;;;20.00;99.90;;;;;;5021596;28;20020;-71
2022/09/22 13:05:51;;;;;;;5.22;1.60;;;20.10;99.90;;;;;;5035251;28;20562;-71
2022/09/22 13:08:44;;;;;;;2.55;1.40;;;20.10;99.90;;;;;;5032696;28;20036;-72
2022/09/22 13:11:09;;;;;;;2.20;0.90;;;20.20;99.90;;;;;;5036974;28;20112;-71
2022/09/22 13:13:47;;;;;;;3.47;1.60;;;20.00;99.90;;;;;;5032377;28;20104;-71
2022/09/22 13:16:13;;;;;;;5.75;1.40;;;19.80;99.90;;;;;;5032525;28;20057;-70